AREA preflight bulletin
Updated "live" 20 Mar 2019, 00:50

back to the map




METAR og TAF


NARSARSUAQ
  AKTUEL BGBW 200050Z AUTO 06006KT 9999NDV BKN065/// M14/M23 Q1002=
  TAF 9 timer BGBW 192358Z 2000/2009 VRB05KT 9999 BKN080 TEMPO 2000/2003 SCT080 TEMPO 2003/2009 4000 -SN BKN030=

QAQORTOQ
  AKTUEL BGJH 200050Z AUTO 35003KT //// ///////// M13/M21 Q1000=

PAAMIUT
  AKTUEL BGPT 200050Z AUTO 10005KT 030V130 //// BKN008/// BKN033/// M11/M13 Q0999=
  TAF 9 timer BGPT 191840Z 1918/1920 12010KT 9999 SCT020TCU BKN030 TEMPO 1918/1920 0500 SHSN BLSN DRSN VV008=

NARSAQ
  AKTUEL BGNS 200050Z AUTO 06005KT //// ///////// M12/M22 Q1001=

NANORTALIK
  AKTUEL BGNN 200020Z AUTO 30004KT //// ///////// M11/M21 Q1001=

NUUK
  SPECI(AL) BGGH 200042Z 26013KT 3500 -SHSN FEW005 SCT015 BKN020 M15/M17 Q0995=
  AKTUEL BGGH 192350Z 26012KT 3000 -SHSN FEW005 SCT020 BKN030 M15/M18 Q0995=
  TAF 9 timer BGGH 192023Z 1921/2003 26012KT 9999 SCT020TCU BKN040 TEMPO 1921/2003 24015G25KT 0800 SHSN DRSN VV006=

KANGERLUSSUAQ
  AKTUEL BGSF 200020Z AUTO 06006KT 9999NDV NCD M28/M32 Q0997=
  TAF 24 timer BGSF 192247Z 2000/2024 06005KT 9999 BKN050 TEMPO 2000/2024 SCT050=


SIGMETS:

SONDRESTROM FIR
  SIGMET BGGL SIGMET 8 VALID 192020/200020 BGSF- BGGL NUUK FIR SEV TURB FCST AT 2020Z WI N5935 W04309 - N5943 W04457 - N6557 W04201 - N6521 W03854 - N5935 W04309 SFC/FL110 STNR NC=

SONDRESTROM FIR
  SIGMET BGGL SIGMET 1 VALID 200020/200330 BGSF- BGGL NUUK FIR SEV TURB FCST AT 0020Z WI N5946 W04300 - N6014 W04430 - N6645 W04021 - N6532 W03810 - N5946 W04300 SFC/FL110 STNR NC=

SNOWTAM:

ICAO
BGGH (NUUK)

valid from:
1903200015

Notam_id:
0631

SNOWTAM 0631 A) BGGH B) 03200015 C) 05 F) 48/48/48 G) 3/3/3 H) 5/5/5 N) 48/POOR R) 48/POOR T) RWY CONTAMINATION 100 PERCENT 1MM DRY SNOW AND 25 PERCENT 1MM COMPACTED OR ROLLED SNOW - MEASURED FRICTION COEFFICIENTS 35/38/40 TAP - SWEEPING IN PROGRESS


ICAO
BGSF (KANGERLUSSUAQ)

valid from:
1903191950

Notam_id:
0388

SNOWTAM 0388 A) BGSF B) 03191950 C) 09 F) 7/7/7 G) 2/2/2 H) 5/5/5 N) A C/7/GOOD B/87/POOR D/UNRELIABLE R) N/7/GOOD E/87/POOR W/UNRELIABLE HELIAPRON/487/POOR T) MEASURED FRICTION COEFFICIENTS 82/86/83 TAP, RWY CONTAMINATION 10 PERCENT 2MM ICE



NOTAM/SNOWTAM for operationel use has to be confirmed with the
nearest AIS Briefing Office prior to a flight.

ICAO
BGBW (NARSARSUAQ)

FIR
BGGL

Notam_id:
BGA0126/19

valid from:
1903081254

E) TWY LIGHTS U/S.

valid to:
1903221500


Replacing:
BGA0112/19

ICAO
BGBW (NARSARSUAQ)

FIR
BGGL

Notam_id:
BGA0130/19

valid from:
1903131747

E) SEA RESCUE SERVICE NOT AVAILABLE DUE TO MAINTENANCE.

valid to:
1905311900




ICAO
BGBW (NARSARSUAQ)

FIR
BGGL

Notam_id:
BGA0085/19

valid from:
1902071308

E) USE OF INSTRUMENT APPROACH PROCEDURE RNAV (GNSS) Y RWY 06 FOR AIRCRAFT CATEGORY C SUSPENDED.

valid to:
1906192359EST


Replacing:
BGA0084/19

ICAO
BGPT (PAAMIUT)

FIR
BGGL

Notam_id:
BGB0163/19

valid from:
1903161859

E) PWS U/S. BGPT WX AND VISIBILITY IN METAR NOT AVAILABLE.

valid to:
1903201500EST




ICAO
BGNS (NARSAQ)

FIR
BGGL

Notam_id:
BGC0022/19

valid from:
1902251344

E) ONE OF RWY HAPI LIGHTS OUT OF SERVICE.

valid to:
1903251800EST


Replacing:
BGC0021/19

ICAO
BGGL (SONDRESTROM FIR)

FIR
BGGL

Notam_id:
BGA0128/19

valid from:
1903081607

E) NUUK INFORMATION FREQ 5526 KHZ PSN 6534N03707W (KULUSUK)U/S.

valid to:
1903201800


Replacing:
BGA0127/19

ICAO
BGGL (SONDRESTROM FIR)

FIR
BGGL

Notam_id:
BGA0124/19

valid from:
1903010624

E) CHECKLIST YEAR=2017 0269 YEAR=2018 0199 0538 YEAR=2019 0023 0085 0087 0103 0112 0117 0122 0123 LATEST PUBLICATIONS AIP AIRAC AMDT IFR 002/2019 EFFECTIVE DATE 28 MAR 19 AIP AMDT IFR 003/2018 EFFECTIVE DATE 15 MAR 18 AIP SUP IFR 006/2018 EFFECTIVE DATE 18 JUN 18 AIC IFR A001/2019 EFFECTIVE DATE 17 JAN 19

valid to:
1904010624EST


Replacing:
BGA0080/19

ICAO
BGGL (SONDRESTROM FIR)

FIR
BGGL

Notam_id:
BGB0138/19

valid from:
1903010626

E) CHECKLIST YEAR=2017 0740 0930 YEAR=2018 0806 0811 0928 0949 0958 0973 YEAR=2019 0005 0070 0074 0075 0078 0091 0106 0112 0117 0124 0125 0127 0131 0132 0133 0136 LATEST PUBLICATIONS AIP AIRAC AMDT IFR 002/2019 EFFECTIVE DATE 28 MAR 19 AIP AMDT IFR 003/2018 EFFECTIVE DATE 15 MAR 18 AIP SUP IFR 006/2018 EFFECTIVE DATE 18 JUN 18 AIC IFR A001/2019 EFFECTIVE DATE 17 JAN 19

valid to:
1904010626EST


Replacing:
BGB0072/19

ICAO
BGGL (SONDRESTROM FIR)

FIR
BGGL

Notam_id:
BGC0023/19

valid from:
1903010626

E) CHECKLIST YEAR=2018 0079 0081 YEAR=2019 0008 0011 0012 0013 0014 0015 0016 0017 0022 LATEST PUBLICATIONS AIP AIRAC AMDT IFR 002/2019 EFFECTIVE DATE 28 MAR 19 AIP AMDT IFR 003/2018 EFFECTIVE DATE 15 MAR 18 AIP SUP IFR 006/2018 EFFECTIVE DATE 18 JUN 18 AIC IFR A001/2019 EFFECTIVE DATE 17 JAN 19

valid to:
1904010626EST


Replacing:
BGC0007/19

ICAO
BGGL (SONDRESTROM FIR)

FIR
BGGL

Notam_id:
BGA0125/19

valid from:
1904250000

E) AIP AIRAC AMDT EFFECTIVE DATE 25 APR 2019: NIL.

valid to:
1905082359




ICAO
BGGL (SONDRESTROM FIR)

FIR
BGGL

Notam_id:
BGA0143/19

valid from:
1903271300

E) NUUK INFORMATION FREQ 121.300 MHZ PSN 610158N0453614W (NAAJAT) OUT OF SERVICE DUE MAINTENANCE.

valid to:
1903271600




ICAO
BGGL (SONDRESTROM FIR)

FIR
BGGL

Notam_id:
BGA0138/19

valid from:
1903221000

E) NUUK INFORMATION FREQ 120.300 MHZ PSN 702906N0215850W (ITTOQQORTOORMIIT) U/S DUE MAINTENANCE.

valid to:
1903221400




ICAO
BGGL (SONDRESTROM FIR)

FIR
BGGL

Notam_id:
BGA0199/18

valid from:
1805310935

E) GREENLAND AND ADJACENT WATERS ARE CONSIDERED HOSTILE AREAS BY THE CIVIL AVIATION AUTHORITY (TBST). THREE MAJOR REASONS CONTRIBUTE TO DEFINING THE AREA AS HOSTILE: A SAFE FORCED LANDING CANNOT BE ACCOMPLISHED BECAUSE THE SURFACE IS INADEQUATE. THE HELICOPTER OCCUPANTS CANNOT BE ADEQUATELY PROTECTED FROM THE ELEMENTS. SEARCH AND RESCUE RESPONSE/CAPABILITY ARE NOT PROVIDED CONSISTENT WITH ANTICIPATED EXPOSURE.

valid to:
PERM




ICAO
BGGH (NUUK)

FIR
BGGL

Notam_id:
BGB0070/19

valid from:
1901311908

E) BGGH AFIS FREQ 119.100 MHZ NO COVERAGE IN SECTOR BETWEEN 060 DEG MAG AND 210 DEG MAG BELOW FL100.

valid to:
1907311900EST


Replacing:
BGB0786/18

ICAO
BGGH (NUUK)

FIR
BGGL

Notam_id:
BGB0168/19

valid from:
1903202000

E) LAUNCHING OF RED FLARES AT PSN 641036N0514053W WILL TAKE PLACE. FLARES WILL REACH 1000 FT. LAUNCHING WILL BE COORDINATED WITH AFIS AS TO NOT INTERFERE WITH TRAFFIC F) GND G) 1000FT AMSL

valid to:
1903202100




ICAO
BGGH (NUUK)

FIR
BGGL

Notam_id:
BGB0930/17

valid from:
1712181907

E) ERROR IN CHART FOR RNAV (GNSS) APPROACH RWY 23. WITH REF AIP GREENLAND AD 2-BGGH RNAV (GNSS) RWY 23-1. NEW OCA(H) LNAV/VNAV CLIMB 2.5 PERCENT CAT A TO READ 1310 (1029) INSTEAD OF 1230. NEW OCA(H) LNAV/VNAV CLIMB 2.5 PERCENT CAT B TO READ 1340 (1059) INSTEAD OF 1250. NEW OCA(H) LNAV/VNAV CLIMB 5.0 PERCENT CAT A TO READ 1300 (1019) INSTEAD OF 1070. NEW OCA(H) LNAV/VNAV CLIMB 5.0 PERCENT CAT B TO READ 1320 (1039) INSTEAD OF 1110. NEW OCA(H) LNAV CLIMB 5.0 PERCENT CAT A TO READ 1150 (869) IN-STEAD OF 1130. NEW OCA(H) LNAV CLIMB 5.0 PERCENT CAT B TO READ 1240 (959) INSTEAD OF 1230.

valid to:
PERM




ICAO
BGGH (NUUK)

FIR
BGGL

Notam_id:
BGB0078/19

valid from:
1902041510

E) STAND 3 AND 4 CAN NOT RUN 2 HEATERS SIMULTANEOSLY WHILE RUNNING 2 GPU'S.

valid to:
1903301900EST




ICAO
BGSF (KANGERLUSSUAQ)

FIR
BGGL

Notam_id:
BGA0122/19

valid from:
1902271216

E) TWY D CLOSED DUE ICE.

valid to:
1904011900


Replacing:
BGA0019/19

ICAO
BGSF (KANGERLUSSUAQ)

FIR
BGGL

Notam_id:
BGA0123/19

valid from:
1902271217

E) APRON WEST CLOSED DUE TO ICE.

valid to:
1904011900


Replacing:
BGA0020/19

ICAO
BGSF (KANGERLUSSUAQ)

FIR
BGGL

Notam_id:
BGA0142/19

valid from:
1903191720

E) EVERY OTHER RWY EDGE LIGHT U/S.

valid to:
1903202000EST


Replacing:
BGA0141/19


Copyright Naviair   2003-2016